sensor_id;sensor_type;location;lat;lon;timestamp;temperature;humidity
19622;DHT22;9958;33.196;-97.114;2023-04-06T00:00:07;18.00;51.40
19622;DHT22;9958;33.196;-97.114;2023-04-06T00:02:36;17.90;50.20
19622;DHT22;9958;33.196;-97.114;2023-04-06T00:05:05;17.90;50.30
19622;DHT22;9958;33.196;-97.114;2023-04-06T00:07:34;17.80;51.60
19622;DHT22;9958;33.196;-97.114;2023-04-06T00:10:03;17.70;51.00
19622;DHT22;9958;33.196;-97.114;2023-04-06T00:12:32;17.60;51.10
19622;DHT22;9958;33.196;-97.114;2023-04-06T00:15:00;17.60;51.30
19622;DHT22;9958;33.196;-97.114;2023-04-06T00:17:32;17.50;52.60
19622;DHT22;9958;33.196;-97.114;2023-04-06T00:20:01;17.50;52.50
19622;DHT22;9958;33.196;-97.114;2023-04-06T00:22:29;17.40;52.90
19622;DHT22;9958;33.196;-97.114;2023-04-06T00:24:57;17.30;52.70
19622;DHT22;9958;33.196;-97.114;2023-04-06T00:27:26;17.20;53.00
19622;DHT22;9958;33.196;-97.114;2023-04-06T00:29:54;17.10;53.70
19622;DHT22;9958;33.196;-97.114;2023-04-06T00:32:23;17.10;53.90
19622;DHT22;9958;33.196;-97.114;2023-04-06T00:34:53;17.00;53.80
19622;DHT22;9958;33.196;-97.114;2023-04-06T00:37:21;16.90;54.30
19622;DHT22;9958;33.196;-97.114;2023-04-06T00:39:49;16.90;55.30
19622;DHT22;9958;33.196;-97.114;2023-04-06T00:42:19;16.80;55.50
19622;DHT22;9958;33.196;-97.114;2023-04-06T00:44:52;16.70;56.40
19622;DHT22;9958;33.196;-97.114;2023-04-06T00:47:21;16.60;55.60
19622;DHT22;9958;33.196;-97.114;2023-04-06T00:49:49;16.60;56.40
19622;DHT22;9958;33.196;-97.114;2023-04-06T00:52:19;16.50;56.60
19622;DHT22;9958;33.196;-97.114;2023-04-06T00:54:48;16.40;57.00
19622;DHT22;9958;33.196;-97.114;2023-04-06T00:57:17;16.30;56.40
19622;DHT22;9958;33.196;-97.114;2023-04-06T00:59:46;16.20;56.50
19622;DHT22;9958;33.196;-97.114;2023-04-06T01:02:14;16.20;56.60
19622;DHT22;9958;33.196;-97.114;2023-04-06T01:04:42;16.10;56.60
19622;DHT22;9958;33.196;-97.114;2023-04-06T01:07:11;16.00;57.30
19622;DHT22;9958;33.196;-97.114;2023-04-06T01:09:41;15.90;56.70
19622;DHT22;9958;33.196;-97.114;2023-04-06T01:12:09;15.90;56.50
19622;DHT22;9958;33.196;-97.114;2023-04-06T01:14:38;15.80;56.50
19622;DHT22;9958;33.196;-97.114;2023-04-06T01:17:06;15.70;56.80
19622;DHT22;9958;33.196;-97.114;2023-04-06T01:19:35;15.70;56.80
19622;DHT22;9958;33.196;-97.114;2023-04-06T01:22:04;15.70;56.70
19622;DHT22;9958;33.196;-97.114;2023-04-06T01:24:34;15.60;56.90
19622;DHT22;9958;33.196;-97.114;2023-04-06T01:27:02;15.50;57.00
19622;DHT22;9958;33.196;-97.114;2023-04-06T01:29:31;15.50;57.00
19622;DHT22;9958;33.196;-97.114;2023-04-06T01:31:59;15.40;57.20
19622;DHT22;9958;33.196;-97.114;2023-04-06T01:34:28;15.40;57.30
19622;DHT22;9958;33.196;-97.114;2023-04-06T01:36:56;15.30;57.70
19622;DHT22;9958;33.196;-97.114;2023-04-06T01:39:24;15.30;58.00
19622;DHT22;9958;33.196;-97.114;2023-04-06T01:41:54;15.30;58.10
19622;DHT22;9958;33.196;-97.114;2023-04-06T01:44:23;15.20;58.30
19622;DHT22;9958;33.196;-97.114;2023-04-06T01:46:51;15.20;58.40
19622;DHT22;9958;33.196;-97.114;2023-04-06T01:49:19;15.10;58.60
19622;DHT22;9958;33.196;-97.114;2023-04-06T01:51:48;15.10;59.10
19622;DHT22;9958;33.196;-97.114;2023-04-06T01:54:16;15.00;59.10
19622;DHT22;9958;33.196;-97.114;2023-04-06T01:56:45;15.00;59.20
19622;DHT22;9958;33.196;-97.114;2023-04-06T01:59:15;14.90;59.60
19622;DHT22;9958;33.196;-97.114;2023-04-06T02:01:43;14.90;59.60
19622;DHT22;9958;33.196;-97.114;2023-04-06T02:04:11;14.80;59.60
19622;DHT22;9958;33.196;-97.114;2023-04-06T02:06:40;14.80;59.90
19622;DHT22;9958;33.196;-97.114;2023-04-06T02:09:09;14.70;60.20
19622;DHT22;9958;33.196;-97.114;2023-04-06T02:11:37;14.70;60.30
19622;DHT22;9958;33.196;-97.114;2023-04-06T02:14:05;14.60;60.40
19622;DHT22;9958;33.196;-97.114;2023-04-06T02:16:35;14.60;60.70
19622;DHT22;9958;33.196;-97.114;2023-04-06T02:19:04;14.50;60.40
19622;DHT22;9958;33.196;-97.114;2023-04-06T02:21:32;14.40;60.90
19622;DHT22;9958;33.196;-97.114;2023-04-06T02:24:00;14.40;61.30
19622;DHT22;9958;33.196;-97.114;2023-04-06T02:26:29;14.40;61.30
19622;DHT22;9958;33.196;-97.114;2023-04-06T02:28:57;14.30;61.70
19622;DHT22;9958;33.196;-97.114;2023-04-06T02:31:26;14.30;61.80
19622;DHT22;9958;33.196;-97.114;2023-04-06T02:33:56;14.20;61.80
19622;DHT22;9958;33.196;-97.114;2023-04-06T02:36:24;14.20;62.20
19622;DHT22;9958;33.196;-97.114;2023-04-06T02:38:52;14.20;62.00
19622;DHT22;9958;33.196;-97.114;2023-04-06T02:41:21;14.10;62.10
19622;DHT22;9958;33.196;-97.114;2023-04-06T02:43:49;14.10;62.20
19622;DHT22;9958;33.196;-97.114;2023-04-06T02:46:17;14.00;62.10
19622;DHT22;9958;33.196;-97.114;2023-04-06T02:48:46;14.00;62.20
19622;DHT22;9958;33.196;-97.114;2023-04-06T02:51:16;13.90;62.10
19622;DHT22;9958;33.196;-97.114;2023-04-06T02:53:44;13.90;62.40
19622;DHT22;9958;33.196;-97.114;2023-04-06T02:56:13;13.90;62.70
19622;DHT22;9958;33.196;-97.114;2023-04-06T02:58:41;13.80;62.40
19622;DHT22;9958;33.196;-97.114;2023-04-06T03:01:09;13.80;62.60
19622;DHT22;9958;33.196;-97.114;2023-04-06T03:03:38;13.80;62.70
19622;DHT22;9958;33.196;-97.114;2023-04-06T03:06:06;13.70;62.60
19622;DHT22;9958;33.196;-97.114;2023-04-06T03:08:36;13.70;63.10
19622;DHT22;9958;33.196;-97.114;2023-04-06T03:11:05;13.60;62.90
19622;DHT22;9958;33.196;-97.114;2023-04-06T03:13:33;13.60;63.10
19622;DHT22;9958;33.196;-97.114;2023-04-06T03:16:02;13.50;62.80
19622;DHT22;9958;33.196;-97.114;2023-04-06T03:18:30;13.50;63.90
19622;DHT22;9958;33.196;-97.114;2023-04-06T03:20:58;13.50;64.00
19622;DHT22;9958;33.196;-97.114;2023-04-06T03:23:27;13.40;64.30
19622;DHT22;9958;33.196;-97.114;2023-04-06T03:25:57;13.40;64.30
19622;DHT22;9958;33.196;-97.114;2023-04-06T03:28:26;13.40;64.80
19622;DHT22;9958;33.196;-97.114;2023-04-06T03:30:54;13.30;64.70
19622;DHT22;9958;33.196;-97.114;2023-04-06T03:33:23;13.30;65.00
19622;DHT22;9958;33.196;-97.114;2023-04-06T03:35:53;13.20;65.10
19622;DHT22;9958;33.196;-97.114;2023-04-06T03:38:21;13.20;66.00
19622;DHT22;9958;33.196;-97.114;2023-04-06T03:40:50;13.10;65.90
19622;DHT22;9958;33.196;-97.114;2023-04-06T03:43:20;13.10;66.10
19622;DHT22;9958;33.196;-97.114;2023-04-06T03:45:48;13.00;66.70
19622;DHT22;9958;33.196;-97.114;2023-04-06T03:48:16;12.90;66.80
19622;DHT22;9958;33.196;-97.114;2023-04-06T03:50:45;12.90;67.50
19622;DHT22;9958;33.196;-97.114;2023-04-06T03:53:13;12.90;67.80
19622;DHT22;9958;33.196;-97.114;2023-04-06T03:55:42;12.80;68.00
19622;DHT22;9958;33.196;-97.114;2023-04-06T03:58:10;12.80;68.50
19622;DHT22;9958;33.196;-97.114;2023-04-06T04:00:40;12.80;68.60
19622;DHT22;9958;33.196;-97.114;2023-04-06T04:03:08;12.70;69.00
19622;DHT22;9958;33.196;-97.114;2023-04-06T04:05:37;12.70;69.50
19622;DHT22;9958;33.196;-97.114;2023-04-06T04:08:05;12.70;70.00
19622;DHT22;9958;33.196;-97.114;2023-04-06T04:10:33;12.60;70.30
19622;DHT22;9958;33.196;-97.114;2023-04-06T04:13:02;12.60;70.90
19622;DHT22;9958;33.196;-97.114;2023-04-06T04:15:30;12.60;71.30
19622;DHT22;9958;33.196;-97.114;2023-04-06T04:18:00;12.50;71.20
19622;DHT22;9958;33.196;-97.114;2023-04-06T04:20:28;12.50;71.40
19622;DHT22;9958;33.196;-97.114;2023-04-06T04:22:57;12.40;71.70
19622;DHT22;9958;33.196;-97.114;2023-04-06T04:25:25;12.40;72.00
19622;DHT22;9958;33.196;-97.114;2023-04-06T04:27:53;12.40;72.40
19622;DHT22;9958;33.196;-97.114;2023-04-06T04:30:22;12.40;72.70
19622;DHT22;9958;33.196;-97.114;2023-04-06T04:32:50;12.40;73.00
19622;DHT22;9958;33.196;-97.114;2023-04-06T04:35:20;12.30;73.10
19622;DHT22;9958;33.196;-97.114;2023-04-06T04:37:49;12.30;73.10
19622;DHT22;9958;33.196;-97.114;2023-04-06T04:40:17;12.30;73.60
19622;DHT22;9958;33.196;-97.114;2023-04-06T04:42:45;12.20;73.80
19622;DHT22;9958;33.196;-97.114;2023-04-06T04:45:14;12.20;74.50
19622;DHT22;9958;33.196;-97.114;2023-04-06T04:47:42;12.20;74.20
19622;DHT22;9958;33.196;-97.114;2023-04-06T04:50:11;12.20;74.10
19622;DHT22;9958;33.196;-97.114;2023-04-06T04:52:41;12.10;74.20
19622;DHT22;9958;33.196;-97.114;2023-04-06T04:55:09;12.10;74.60
19622;DHT22;9958;33.196;-97.114;2023-04-06T04:57:37;12.10;74.40
19622;DHT22;9958;33.196;-97.114;2023-04-06T05:00:07;12.00;74.10
19622;DHT22;9958;33.196;-97.114;2023-04-06T05:02:35;12.00;74.20
19622;DHT22;9958;33.196;-97.114;2023-04-06T05:05:04;12.00;74.60
19622;DHT22;9958;33.196;-97.114;2023-04-06T05:07:33;11.90;74.60
19622;DHT22;9958;33.196;-97.114;2023-04-06T05:10:03;11.90;74.70
19622;DHT22;9958;33.196;-97.114;2023-04-06T05:12:32;11.90;74.50
19622;DHT22;9958;33.196;-97.114;2023-04-06T05:15:00;11.90;74.30
19622;DHT22;9958;33.196;-97.114;2023-04-06T05:17:28;11.80;74.50
19622;DHT22;9958;33.196;-97.114;2023-04-06T05:19:57;11.80;75.00
19622;DHT22;9958;33.196;-97.114;2023-04-06T05:22:25;11.80;75.20
19622;DHT22;9958;33.196;-97.114;2023-04-06T05:24:54;11.80;75.50
19622;DHT22;9958;33.196;-97.114;2023-04-06T05:27:24;11.70;75.70
19622;DHT22;9958;33.196;-97.114;2023-04-06T05:29:52;11.70;76.10
19622;DHT22;9958;33.196;-97.114;2023-04-06T05:32:21;11.70;76.00
19622;DHT22;9958;33.196;-97.114;2023-04-06T05:34:51;11.60;76.00
19622;DHT22;9958;33.196;-97.114;2023-04-06T05:37:19;11.60;76.20
19622;DHT22;9958;33.196;-97.114;2023-04-06T05:39:48;11.60;76.50
19622;DHT22;9958;33.196;-97.114;2023-04-06T05:42:16;11.50;76.10
19622;DHT22;9958;33.196;-97.114;2023-04-06T05:44:46;11.40;76.70
19622;DHT22;9958;33.196;-97.114;2023-04-06T05:47:14;11.40;75.90
19622;DHT22;9958;33.196;-97.114;2023-04-06T05:49:43;11.40;75.90
19622;DHT22;9958;33.196;-97.114;2023-04-06T05:52:11;11.40;75.90
19622;DHT22;9958;33.196;-97.114;2023-04-06T05:54:40;11.40;76.50
19622;DHT22;9958;33.196;-97.114;2023-04-06T05:57:08;11.30;76.00
19622;DHT22;9958;33.196;-97.114;2023-04-06T05:59:36;11.30;76.50
19622;DHT22;9958;33.196;-97.114;2023-04-06T06:02:06;11.30;75.80
19622;DHT22;9958;33.196;-97.114;2023-04-06T06:04:35;11.30;76.00
19622;DHT22;9958;33.196;-97.114;2023-04-06T06:07:03;11.20;76.30
19622;DHT22;9958;33.196;-97.114;2023-04-06T06:09:32;11.20;76.30
19622;DHT22;9958;33.196;-97.114;2023-04-06T06:12:00;11.20;76.80
19622;DHT22;9958;33.196;-97.114;2023-04-06T06:14:29;11.20;77.00
19622;DHT22;9958;33.196;-97.114;2023-04-06T06:16:57;11.10;77.00
19622;DHT22;9958;33.196;-97.114;2023-04-06T06:19:27;11.10;77.10
19622;DHT22;9958;33.196;-97.114;2023-04-06T06:21:56;11.10;77.60
19622;DHT22;9958;33.196;-97.114;2023-04-06T06:24:25;11.00;77.40
19622;DHT22;9958;33.196;-97.114;2023-04-06T06:26:53;11.00;77.80
19622;DHT22;9958;33.196;-97.114;2023-04-06T06:29:21;11.00;77.90
19622;DHT22;9958;33.196;-97.114;2023-04-06T06:31:50;10.90;77.90
19622;DHT22;9958;33.196;-97.114;2023-04-06T06:34:18;10.90;77.90
19622;DHT22;9958;33.196;-97.114;2023-04-06T06:36:48;10.80;78.60
19622;DHT22;9958;33.196;-97.114;2023-04-06T06:39:17;10.80;78.70
19622;DHT22;9958;33.196;-97.114;2023-04-06T06:41:46;10.80;78.30
19622;DHT22;9958;33.196;-97.114;2023-04-06T06:44:14;10.80;79.10
19622;DHT22;9958;33.196;-97.114;2023-04-06T06:46:43;10.70;79.10
19622;DHT22;9958;33.196;-97.114;2023-04-06T06:49:11;10.70;79.70
19622;DHT22;9958;33.196;-97.114;2023-04-06T06:51:40;10.60;80.20
19622;DHT22;9958;33.196;-97.114;2023-04-06T06:54:10;10.60;79.70
19622;DHT22;9958;33.196;-97.114;2023-04-06T06:56:39;10.60;80.10
19622;DHT22;9958;33.196;-97.114;2023-04-06T06:59:07;10.50;79.80
19622;DHT22;9958;33.196;-97.114;2023-04-06T07:01:36;10.50;79.50
19622;DHT22;9958;33.196;-97.114;2023-04-06T07:04:05;10.50;80.30
19622;DHT22;9958;33.196;-97.114;2023-04-06T07:06:35;10.40;79.40
19622;DHT22;9958;33.196;-97.114;2023-04-06T07:09:04;10.40;79.70
19622;DHT22;9958;33.196;-97.114;2023-04-06T07:11:34;10.40;79.50
19622;DHT22;9958;33.196;-97.114;2023-04-06T07:14:02;10.40;79.70
19622;DHT22;9958;33.196;-97.114;2023-04-06T07:16:31;10.30;79.50
19622;DHT22;9958;33.196;-97.114;2023-04-06T07:18:59;10.30;79.60
19622;DHT22;9958;33.196;-97.114;2023-04-06T07:21:28;10.30;79.90
19622;DHT22;9958;33.196;-97.114;2023-04-06T07:23:56;10.30;79.70
19622;DHT22;9958;33.196;-97.114;2023-04-06T07:26:24;10.30;80.10
19622;DHT22;9958;33.196;-97.114;2023-04-06T07:28:54;10.20;78.40
19622;DHT22;9958;33.196;-97.114;2023-04-06T07:31:23;10.20;78.80
19622;DHT22;9958;33.196;-97.114;2023-04-06T07:33:51;10.20;79.00
19622;DHT22;9958;33.196;-97.114;2023-04-06T07:36:20;10.20;78.40
19622;DHT22;9958;33.196;-97.114;2023-04-06T07:38:49;10.10;78.80
19622;DHT22;9958;33.196;-97.114;2023-04-06T07:41:17;10.10;78.80
19622;DHT22;9958;33.196;-97.114;2023-04-06T07:43:46;10.10;78.50
19622;DHT22;9958;33.196;-97.114;2023-04-06T07:46:16;10.10;78.70
19622;DHT22;9958;33.196;-97.114;2023-04-06T07:48:44;10.10;78.70
19622;DHT22;9958;33.196;-97.114;2023-04-06T07:51:12;10.10;78.50
19622;DHT22;9958;33.196;-97.114;2023-04-06T07:53:43;10.10;78.70
19622;DHT22;9958;33.196;-97.114;2023-04-06T07:56:11;10.10;78.30
19622;DHT22;9958;33.196;-97.114;2023-04-06T07:58:41;10.10;78.60
19622;DHT22;9958;33.196;-97.114;2023-04-06T08:01:10;10.10;78.70
19622;DHT22;9958;33.196;-97.114;2023-04-06T08:03:40;10.10;79.40
19622;DHT22;9958;33.196;-97.114;2023-04-06T08:06:08;10.10;79.40
19622;DHT22;9958;33.196;-97.114;2023-04-06T08:08:36;10.10;79.50
19622;DHT22;9958;33.196;-97.114;2023-04-06T08:11:05;10.10;79.40
19622;DHT22;9958;33.196;-97.114;2023-04-06T08:13:34;10.10;79.80
19622;DHT22;9958;33.196;-97.114;2023-04-06T08:16:03;10.10;80.20
19622;DHT22;9958;33.196;-97.114;2023-04-06T08:18:31;10.10;80.20
19622;DHT22;9958;33.196;-97.114;2023-04-06T08:21:01;10.10;80.20
19622;DHT22;9958;33.196;-97.114;2023-04-06T08:23:29;10.10;80.50
19622;DHT22;9958;33.196;-97.114;2023-04-06T08:25:58;10.00;80.30
19622;DHT22;9958;33.196;-97.114;2023-04-06T08:28:26;10.00;81.30
19622;DHT22;9958;33.196;-97.114;2023-04-06T08:30:54;10.00;81.60
19622;DHT22;9958;33.196;-97.114;2023-04-06T08:33:23;10.00;81.80
19622;DHT22;9958;33.196;-97.114;2023-04-06T08:35:51;9.90;83.00
19622;DHT22;9958;33.196;-97.114;2023-04-06T08:38:21;9.90;83.40
19622;DHT22;9958;33.196;-97.114;2023-04-06T08:40:50;9.90;83.50
19622;DHT22;9958;33.196;-97.114;2023-04-06T08:43:19;9.90;83.70
19622;DHT22;9958;33.196;-97.114;2023-04-06T08:45:50;9.80;84.50
19622;DHT22;9958;33.196;-97.114;2023-04-06T08:48:19;9.80;84.90
19622;DHT22;9958;33.196;-97.114;2023-04-06T08:50:48;9.70;85.90
19622;DHT22;9958;33.196;-97.114;2023-04-06T08:53:17;9.70;85.70
19622;DHT22;9958;33.196;-97.114;2023-04-06T08:55:48;9.70;86.10
19622;DHT22;9958;33.196;-97.114;2023-04-06T08:58:16;9.70;86.40
19622;DHT22;9958;33.196;-97.114;2023-04-06T09:00:45;9.70;86.60
19622;DHT22;9958;33.196;-97.114;2023-04-06T09:03:13;9.60;86.50
19622;DHT22;9958;33.196;-97.114;2023-04-06T09:05:42;9.60;86.60
19622;DHT22;9958;33.196;-97.114;2023-04-06T09:08:11;9.60;86.60
19622;DHT22;9958;33.196;-97.114;2023-04-06T09:10:41;9.60;86.60
19622;DHT22;9958;33.196;-97.114;2023-04-06T09:13:11;9.60;87.10
19622;DHT22;9958;33.196;-97.114;2023-04-06T09:15:39;9.50;87.10
19622;DHT22;9958;33.196;-97.114;2023-04-06T09:18:08;9.60;88.00
19622;DHT22;9958;33.196;-97.114;2023-04-06T09:20:36;9.50;87.90
19622;DHT22;9958;33.196;-97.114;2023-04-06T09:23:05;9.50;87.80
19622;DHT22;9958;33.196;-97.114;2023-04-06T09:25:33;9.50;88.50
19622;DHT22;9958;33.196;-97.114;2023-04-06T09:28:02;9.50;89.80
19622;DHT22;9958;33.196;-97.114;2023-04-06T09:30:34;9.50;89.20
19622;DHT22;9958;33.196;-97.114;2023-04-06T09:33:04;9.50;89.10
19622;DHT22;9958;33.196;-97.114;2023-04-06T09:35:33;9.50;89.00
19622;DHT22;9958;33.196;-97.114;2023-04-06T09:38:11;9.50;89.30
19622;DHT22;9958;33.196;-97.114;2023-04-06T09:40:48;9.50;89.70
19622;DHT22;9958;33.196;-97.114;2023-04-06T09:43:24;9.40;90.00
19622;DHT22;9958;33.196;-97.114;2023-04-06T09:45:55;9.40;90.10
19622;DHT22;9958;33.196;-97.114;2023-04-06T09:48:25;9.40;90.40
19622;DHT22;9958;33.196;-97.114;2023-04-06T09:51:01;9.40;90.40
19622;DHT22;9958;33.196;-97.114;2023-04-06T09:53:31;9.40;90.60
19622;DHT22;9958;33.196;-97.114;2023-04-06T09:56:03;9.40;90.70
19622;DHT22;9958;33.196;-97.114;2023-04-06T09:58:36;9.40;90.70
19622;DHT22;9958;33.196;-97.114;2023-04-06T10:01:10;9.40;90.70
19622;DHT22;9958;33.196;-97.114;2023-04-06T10:03:48;9.40;90.80
19622;DHT22;9958;33.196;-97.114;2023-04-06T10:06:22;9.30;90.90
19622;DHT22;9958;33.196;-97.114;2023-04-06T10:08:53;9.30;91.10
19622;DHT22;9958;33.196;-97.114;2023-04-06T10:11:22;9.30;91.20
19622;DHT22;9958;33.196;-97.114;2023-04-06T10:13:51;9.30;91.20
19622;DHT22;9958;33.196;-97.114;2023-04-06T10:16:21;9.30;91.30
19622;DHT22;9958;33.196;-97.114;2023-04-06T10:18:54;9.30;91.10
19622;DHT22;9958;33.196;-97.114;2023-04-06T10:21:25;9.30;91.30
19622;DHT22;9958;33.196;-97.114;2023-04-06T10:23:58;9.30;91.20
19622;DHT22;9958;33.196;-97.114;2023-04-06T10:26:27;9.20;91.00
19622;DHT22;9958;33.196;-97.114;2023-04-06T10:29:01;9.20;90.80
19622;DHT22;9958;33.196;-97.114;2023-04-06T10:31:32;9.20;91.10
19622;DHT22;9958;33.196;-97.114;2023-04-06T10:34:02;9.20;91.00
19622;DHT22;9958;33.196;-97.114;2023-04-06T10:36:33;9.20;91.00
19622;DHT22;9958;33.196;-97.114;2023-04-06T10:39:03;9.20;90.80
19622;DHT22;9958;33.196;-97.114;2023-04-06T10:41:35;9.20;90.80
19622;DHT22;9958;33.196;-97.114;2023-04-06T10:44:04;9.20;91.10
19622;DHT22;9958;33.196;-97.114;2023-04-06T10:46:34;9.20;90.80
19622;DHT22;9958;33.196;-97.114;2023-04-06T10:49:12;9.20;90.70
19622;DHT22;9958;33.196;-97.114;2023-04-06T10:51:41;9.20;90.60
19622;DHT22;9958;33.196;-97.114;2023-04-06T10:54:10;9.20;90.40
19622;DHT22;9958;33.196;-97.114;2023-04-06T10:56:39;9.20;90.50
19622;DHT22;9958;33.196;-97.114;2023-04-06T10:59:08;9.20;90.40
19622;DHT22;9958;33.196;-97.114;2023-04-06T11:01:38;9.20;89.90
19622;DHT22;9958;33.196;-97.114;2023-04-06T11:04:16;9.20;89.80
19622;DHT22;9958;33.196;-97.114;2023-04-06T11:06:47;9.20;89.10
19622;DHT22;9958;33.196;-97.114;2023-04-06T11:09:25;9.20;88.90
19622;DHT22;9958;33.196;-97.114;2023-04-06T11:11:54;9.20;88.40
19622;DHT22;9958;33.196;-97.114;2023-04-06T11:14:23;9.20;88.20
19622;DHT22;9958;33.196;-97.114;2023-04-06T11:16:54;9.20;87.70
19622;DHT22;9958;33.196;-97.114;2023-04-06T11:19:22;9.20;87.10
19622;DHT22;9958;33.196;-97.114;2023-04-06T11:21:51;9.20;86.80
19622;DHT22;9958;33.196;-97.114;2023-04-06T11:24:20;9.30;87.00
19622;DHT22;9958;33.196;-97.114;2023-04-06T11:26:50;9.30;86.80
19622;DHT22;9958;33.196;-97.114;2023-04-06T11:29:19;9.30;86.20
19622;DHT22;9958;33.196;-97.114;2023-04-06T11:31:48;9.30;87.00
19622;DHT22;9958;33.196;-97.114;2023-04-06T11:34:19;9.30;87.20
19622;DHT22;9958;33.196;-97.114;2023-04-06T11:36:49;9.40;87.50
19622;DHT22;9958;33.196;-97.114;2023-04-06T11:39:19;9.40;87.50
19622;DHT22;9958;33.196;-97.114;2023-04-06T11:41:48;9.40;88.20
19622;DHT22;9958;33.196;-97.114;2023-04-06T11:44:28;9.40;88.00
19622;DHT22;9958;33.196;-97.114;2023-04-06T11:46:58;9.40;88.70
19622;DHT22;9958;33.196;-97.114;2023-04-06T11:49:29;9.40;88.20
19622;DHT22;9958;33.196;-97.114;2023-04-06T11:51:58;9.40;88.00
19622;DHT22;9958;33.196;-97.114;2023-04-06T11:54:32;9.40;87.90
19622;DHT22;9958;33.196;-97.114;2023-04-06T11:57:01;9.40;87.80
19622;DHT22;9958;33.196;-97.114;2023-04-06T11:59:29;9.40;87.90
19622;DHT22;9958;33.196;-97.114;2023-04-06T12:01:58;9.40;87.20
19622;DHT22;9958;33.196;-97.114;2023-04-06T12:04:28;9.40;87.50
19622;DHT22;9958;33.196;-97.114;2023-04-06T12:06:57;9.40;87.80
19622;DHT22;9958;33.196;-97.114;2023-04-06T12:09:26;9.40;87.30
19622;DHT22;9958;33.196;-97.114;2023-04-06T12:11:54;9.40;87.00
19622;DHT22;9958;33.196;-97.114;2023-04-06T12:14:23;9.40;86.80
19622;DHT22;9958;33.196;-97.114;2023-04-06T12:16:51;9.40;86.30
19622;DHT22;9958;33.196;-97.114;2023-04-06T12:19:20;9.40;85.60
19622;DHT22;9958;33.196;-97.114;2023-04-06T12:21:53;9.40;84.30
19622;DHT22;9958;33.196;-97.114;2023-04-06T12:24:23;9.40;85.00
19622;DHT22;9958;33.196;-97.114;2023-04-06T12:26:51;9.40;84.80
19622;DHT22;9958;33.196;-97.114;2023-04-06T12:29:21;9.40;83.70
19622;DHT22;9958;33.196;-97.114;2023-04-06T12:31:49;9.40;83.10
19622;DHT22;9958;33.196;-97.114;2023-04-06T12:34:18;9.40;82.60
19622;DHT22;9958;33.196;-97.114;2023-04-06T12:36:46;9.50;82.70
19622;DHT22;9958;33.196;-97.114;2023-04-06T12:39:18;9.50;82.60
19622;DHT22;9958;33.196;-97.114;2023-04-06T12:41:46;9.50;82.90
19622;DHT22;9958;33.196;-97.114;2023-04-06T12:44:15;9.50;81.80
19622;DHT22;9958;33.196;-97.114;2023-04-06T12:46:43;9.50;81.90
19622;DHT22;9958;33.196;-97.114;2023-04-06T12:49:11;9.60;81.30
19622;DHT22;9958;33.196;-97.114;2023-04-06T12:51:40;9.60;81.40
19622;DHT22;9958;33.196;-97.114;2023-04-06T12:54:08;9.60;80.90
19622;DHT22;9958;33.196;-97.114;2023-04-06T12:56:39;9.70;80.80
19622;DHT22;9958;33.196;-97.114;2023-04-06T12:59:07;9.70;81.00
19622;DHT22;9958;33.196;-97.114;2023-04-06T13:01:35;9.70;80.50
19622;DHT22;9958;33.196;-97.114;2023-04-06T13:04:04;9.70;80.60
19622;DHT22;9958;33.196;-97.114;2023-04-06T13:06:32;9.80;80.70
19622;DHT22;9958;33.196;-97.114;2023-04-06T13:09:01;9.80;81.00
19622;DHT22;9958;33.196;-97.114;2023-04-06T13:11:30;9.90;81.30
19622;DHT22;9958;33.196;-97.114;2023-04-06T13:14:00;9.90;81.10
19622;DHT22;9958;33.196;-97.114;2023-04-06T13:16:29;10.00;80.10
19622;DHT22;9958;33.196;-97.114;2023-04-06T13:18:57;10.00;80.30
19622;DHT22;9958;33.196;-97.114;2023-04-06T13:21:26;10.00;80.00
19622;DHT22;9958;33.196;-97.114;2023-04-06T13:23:54;10.00;79.60
19622;DHT22;9958;33.196;-97.114;2023-04-06T13:26:22;10.00;79.40
19622;DHT22;9958;33.196;-97.114;2023-04-06T13:28:51;10.00;78.30
19622;DHT22;9958;33.196;-97.114;2023-04-06T13:31:21;10.10;80.20
19622;DHT22;9958;33.196;-97.114;2023-04-06T13:33:50;10.20;79.70
19622;DHT22;9958;33.196;-97.114;2023-04-06T13:36:18;10.20;78.50
19622;DHT22;9958;33.196;-97.114;2023-04-06T13:38:47;10.30;79.30
19622;DHT22;9958;33.196;-97.114;2023-04-06T13:41:19;10.40;78.60
19622;DHT22;9958;33.196;-97.114;2023-04-06T13:43:48;10.50;79.00
19622;DHT22;9958;33.196;-97.114;2023-04-06T13:46:17;10.50;78.10
19622;DHT22;9958;33.196;-97.114;2023-04-06T13:48:47;10.60;79.00
19622;DHT22;9958;33.196;-97.114;2023-04-06T13:51:16;10.70;78.90
19622;DHT22;9958;33.196;-97.114;2023-04-06T13:53:44;10.70;78.20
19622;DHT22;9958;33.196;-97.114;2023-04-06T13:56:12;10.80;77.60
19622;DHT22;9958;33.196;-97.114;2023-04-06T13:58:41;10.80;77.50
19622;DHT22;9958;33.196;-97.114;2023-04-06T14:01:09;10.90;77.80
19622;DHT22;9958;33.196;-97.114;2023-04-06T14:03:37;10.90;79.20
19622;DHT22;9958;33.196;-97.114;2023-04-06T14:06:13;10.90;78.20
19622;DHT22;9958;33.196;-97.114;2023-04-06T14:08:41;10.90;78.50
19622;DHT22;9958;33.196;-97.114;2023-04-06T14:11:11;10.90;77.30
19622;DHT22;9958;33.196;-97.114;2023-04-06T14:13:40;11.00;77.90
19622;DHT22;9958;33.196;-97.114;2023-04-06T14:16:09;11.10;78.50
19622;DHT22;9958;33.196;-97.114;2023-04-06T14:18:37;11.20;79.30
19622;DHT22;9958;33.196;-97.114;2023-04-06T14:21:05;11.10;78.50
19622;DHT22;9958;33.196;-97.114;2023-04-06T14:23:35;11.30;78.20
19622;DHT22;9958;33.196;-97.114;2023-04-06T14:26:05;11.30;78.90
19622;DHT22;9958;33.196;-97.114;2023-04-06T14:28:35;11.40;79.20
19622;DHT22;9958;33.196;-97.114;2023-04-06T14:31:12;11.40;78.70
19622;DHT22;9958;33.196;-97.114;2023-04-06T14:33:41;11.40;77.90
19622;DHT22;9958;33.196;-97.114;2023-04-06T14:36:10;11.50;78.70
19622;DHT22;9958;33.196;-97.114;2023-04-06T14:38:40;11.50;79.20
19622;DHT22;9958;33.196;-97.114;2023-04-06T14:41:15;11.60;78.50
19622;DHT22;9958;33.196;-97.114;2023-04-06T14:43:44;11.60;78.00
19622;DHT22;9958;33.196;-97.114;2023-04-06T14:46:13;11.70;78.20
19622;DHT22;9958;33.196;-97.114;2023-04-06T14:48:41;11.70;78.50
19622;DHT22;9958;33.196;-97.114;2023-04-06T14:51:10;11.80;78.70
19622;DHT22;9958;33.196;-97.114;2023-04-06T14:53:40;11.80;79.10
19622;DHT22;9958;33.196;-97.114;2023-04-06T14:56:08;11.90;77.90
19622;DHT22;9958;33.196;-97.114;2023-04-06T14:58:36;11.90;78.00
19622;DHT22;9958;33.196;-97.114;2023-04-06T15:01:05;12.00;78.50
19622;DHT22;9958;33.196;-97.114;2023-04-06T15:03:34;12.10;78.20
19622;DHT22;9958;33.196;-97.114;2023-04-06T15:06:03;12.10;77.90
19622;DHT22;9958;33.196;-97.114;2023-04-06T15:08:32;12.20;78.10
19622;DHT22;9958;33.196;-97.114;2023-04-06T15:11:02;12.20;77.30
19622;DHT22;9958;33.196;-97.114;2023-04-06T15:13:32;12.30;78.00
19622;DHT22;9958;33.196;-97.114;2023-04-06T15:16:01;12.40;79.00
19622;DHT22;9958;33.196;-97.114;2023-04-06T15:18:29;12.60;78.40
19622;DHT22;9958;33.196;-97.114;2023-04-06T15:20:57;12.70;76.90
19622;DHT22;9958;33.196;-97.114;2023-04-06T15:23:26;12.70;76.00
19622;DHT22;9958;33.196;-97.114;2023-04-06T15:25:56;12.80;75.80
19622;DHT22;9958;33.196;-97.114;2023-04-06T15:28:26;12.80;75.80
19622;DHT22;9958;33.196;-97.114;2023-04-06T15:30:55;12.80;74.80